Cedartown, GA

3:20 PM EDT on April 21, 2015 (GMT -0400)
Cobb County-McCollum | | Change Station
CLOSE
Current Station
Airport
Location: Marietta McCollum Field,
Elevation: 1040 ft
Nearby Weather Stations

Elev 1040 ft 34.01 °N, 84.60 °W | Updated 33 minutes ago

Clear
Clear
66 °F
Feels Like 66 °F
N
13
Wind Variable Wind from NW
Gusts 23 mph

Today
High -- | Low -- °F
--% Chance of Precip.
Yesterday
High -- | Low -- °F
Precip. -- in
7:03 AM 8:16 PM
Waxing Crescent, 12% visible
Pressure 29.98 in
Visibility 10.0 miles
Clouds Clear
Dew Point 36 °F
Humidity 32%
Rainfall 0.00 in
Snow Depth Not available.
UV 10 out of 12
Pollen 10.60 out of 12
Air Quality Not available.
Flu Activity Sporadic
METAR KRYY 211847Z 31011G20KT 10SM SKC 19/02 A2998

More Conditions Fewer Conditions

Pressure 29.98 in
Visibility 10.0 miles
Clouds Clear
Dew Point 36 °F
Humidity 32%
Rainfall 0.00 in
Snow Depth Not available.
UV 10 out of 12
Pollen 10.60 out of 12
Air Quality Not available.
Flu Activity Sporadic
METAR KRYY 211847Z 31011G20KT 10SM SKC 19/02 A2998

More Conditions Fewer Conditions

10-Day Weather Forecast

Almanac

Astronomy

Apr. 21, 2015 Rise Set
Actual Time
Civil Twilight
Nautical Twilight
Astronomical Twilight
Moon
Length of Visible Light
Length of Day
Tomorrow will be .
, % of the Moon is Illuminated

Today's Extremes

State Highs State Lows

Community

WunderPhotos

Upload Photos

1,815,503 photos uploaded!

WunderBlogs® & News

Nearby

Air Quality

  Air Quality AQ Index Pollutant
Not available.

Snow Depth

Station Depth Elevation

Earthquake Activity

City Distance Mag. Time & Date
Minimum magnitude displayed is 2.5.

Coastal Water Temperatures

Place Temperature

Stations

Nearby Weather Stations

Station Location Temp. Windchill Dew Point Humidity Wind Precip. Elev Updated Type